sensor_id;sensor_type;location;lat;lon;timestamp;P1;durP1;ratioP1;P2;durP2;ratioP2
4434;SDS011;46552;52.150;8.428;2023-02-03T00:01:08;43.80;;;23.40;;
4434;SDS011;46552;52.150;8.428;2023-02-03T00:03:38;46.30;;;19.43;;
4434;SDS011;46552;52.150;8.428;2023-02-03T00:06:05;40.63;;;19.93;;
4434;SDS011;46552;52.150;8.428;2023-02-03T00:08:33;38.80;;;19.23;;
4434;SDS011;46552;52.150;8.428;2023-02-03T00:11:02;43.80;;;21.37;;
4434;SDS011;46552;52.150;8.428;2023-02-03T00:13:29;43.07;;;20.43;;
4434;SDS011;46552;52.150;8.428;2023-02-03T00:15:57;29.80;;;19.40;;
4434;SDS011;46552;52.150;8.428;2023-02-03T00:18:26;31.47;;;18.77;;
4434;SDS011;46552;52.150;8.428;2023-02-03T00:20:54;30.23;;;19.27;;
4434;SDS011;46552;52.150;8.428;2023-02-03T00:23:23;36.93;;;19.40;;
4434;SDS011;46552;52.150;8.428;2023-02-03T00:25:54;33.47;;;20.23;;
4434;SDS011;46552;52.150;8.428;2023-02-03T00:28:21;43.43;;;19.57;;
4434;SDS011;46552;52.150;8.428;2023-02-03T00:30:52;37.00;;;18.57;;
4434;SDS011;46552;52.150;8.428;2023-02-03T00:33:19;33.03;;;19.30;;
4434;SDS011;46552;52.150;8.428;2023-02-03T00:35:46;35.73;;;18.00;;
4434;SDS011;46552;52.150;8.428;2023-02-03T00:38:16;32.50;;;18.33;;
4434;SDS011;46552;52.150;8.428;2023-02-03T00:40:50;38.73;;;20.87;;
4434;SDS011;46552;52.150;8.428;2023-02-03T00:43:18;36.17;;;17.70;;
4434;SDS011;46552;52.150;8.428;2023-02-03T00:45:45;41.30;;;21.63;;
4434;SDS011;46552;52.150;8.428;2023-02-03T00:48:12;34.03;;;19.43;;
4434;SDS011;46552;52.150;8.428;2023-02-03T00:50:39;40.10;;;19.07;;
4434;SDS011;46552;52.150;8.428;2023-02-03T00:53:07;40.20;;;19.50;;
4434;SDS011;46552;52.150;8.428;2023-02-03T00:55:37;37.10;;;17.93;;
4434;SDS011;46552;52.150;8.428;2023-02-03T00:58:06;34.40;;;19.37;;
4434;SDS011;46552;52.150;8.428;2023-02-03T01:00:33;34.57;;;18.87;;
4434;SDS011;46552;52.150;8.428;2023-02-03T01:03:02;31.43;;;17.33;;
4434;SDS011;46552;52.150;8.428;2023-02-03T01:05:29;32.80;;;19.47;;
4434;SDS011;46552;52.150;8.428;2023-02-03T01:07:56;38.57;;;18.87;;
4434;SDS011;46552;52.150;8.428;2023-02-03T01:10:24;33.40;;;18.87;;
4434;SDS011;46552;52.150;8.428;2023-02-03T01:12:54;36.43;;;18.60;;
4434;SDS011;46552;52.150;8.428;2023-02-03T01:15:22;30.60;;;15.50;;
4434;SDS011;46552;52.150;8.428;2023-02-03T01:17:49;28.17;;;17.80;;
4434;SDS011;46552;52.150;8.428;2023-02-03T01:20:16;28.33;;;17.33;;
4434;SDS011;46552;52.150;8.428;2023-02-03T01:22:45;36.43;;;18.00;;
4434;SDS011;46552;52.150;8.428;2023-02-03T01:25:13;41.47;;;18.57;;
4434;SDS011;46552;52.150;8.428;2023-02-03T01:27:41;30.50;;;17.50;;
4434;SDS011;46552;52.150;8.428;2023-02-03T01:30:10;32.03;;;18.50;;
4434;SDS011;46552;52.150;8.428;2023-02-03T01:32:39;38.53;;;19.30;;
4434;SDS011;46552;52.150;8.428;2023-02-03T01:35:06;37.67;;;17.30;;
4434;SDS011;46552;52.150;8.428;2023-02-03T01:37:34;40.63;;;18.07;;
4434;SDS011;46552;52.150;8.428;2023-02-03T01:40:01;32.57;;;18.70;;
4434;SDS011;46552;52.150;8.428;2023-02-03T01:42:31;31.67;;;19.40;;
4434;SDS011;46552;52.150;8.428;2023-02-03T01:44:58;42.43;;;17.27;;
4434;SDS011;46552;52.150;8.428;2023-02-03T01:47:28;36.07;;;18.50;;
4434;SDS011;46552;52.150;8.428;2023-02-03T01:50:00;29.07;;;17.83;;
4434;SDS011;46552;52.150;8.428;2023-02-03T01:52:32;34.27;;;17.70;;
4434;SDS011;46552;52.150;8.428;2023-02-03T01:55:01;31.87;;;18.13;;
4434;SDS011;46552;52.150;8.428;2023-02-03T01:57:33;26.90;;;16.13;;
4434;SDS011;46552;52.150;8.428;2023-02-03T02:00:04;29.67;;;18.60;;
4434;SDS011;46552;52.150;8.428;2023-02-03T02:02:33;36.00;;;18.57;;
4434;SDS011;46552;52.150;8.428;2023-02-03T02:05:02;30.20;;;16.63;;
4434;SDS011;46552;52.150;8.428;2023-02-03T02:07:31;25.97;;;16.37;;
4434;SDS011;46552;52.150;8.428;2023-02-03T02:10:02;32.20;;;15.87;;
4434;SDS011;46552;52.150;8.428;2023-02-03T02:12:29;28.30;;;16.70;;
4434;SDS011;46552;52.150;8.428;2023-02-03T02:14:56;28.50;;;17.03;;
4434;SDS011;46552;52.150;8.428;2023-02-03T02:17:28;24.63;;;16.03;;
4434;SDS011;46552;52.150;8.428;2023-02-03T02:26:28;35.10;;;15.60;;
4434;SDS011;46552;52.150;8.428;2023-02-03T02:29:18;25.10;;;15.80;;
4434;SDS011;46552;52.150;8.428;2023-02-03T02:32:17;26.97;;;16.10;;
4434;SDS011;46552;52.150;8.428;2023-02-03T02:34:56;34.10;;;16.93;;
4434;SDS011;46552;52.150;8.428;2023-02-03T02:37:34;39.97;;;16.37;;
4434;SDS011;46552;52.150;8.428;2023-02-03T02:40:13;35.53;;;16.17;;
4434;SDS011;46552;52.150;8.428;2023-02-03T02:42:51;30.30;;;15.73;;
4434;SDS011;46552;52.150;8.428;2023-02-03T02:45:26;30.50;;;16.83;;
4434;SDS011;46552;52.150;8.428;2023-02-03T02:47:59;35.50;;;17.77;;
4434;SDS011;46552;52.150;8.428;2023-02-03T02:50:32;25.53;;;15.77;;
4434;SDS011;46552;52.150;8.428;2023-02-03T02:53:04;34.63;;;16.43;;
4434;SDS011;46552;52.150;8.428;2023-02-03T02:55:34;30.63;;;16.60;;
4434;SDS011;46552;52.150;8.428;2023-02-03T02:58:06;32.53;;;15.80;;
4434;SDS011;46552;52.150;8.428;2023-02-03T03:00:36;28.27;;;16.03;;
4434;SDS011;46552;52.150;8.428;2023-02-03T03:03:12;34.43;;;16.83;;
4434;SDS011;46552;52.150;8.428;2023-02-03T03:05:41;34.53;;;16.50;;
4434;SDS011;46552;52.150;8.428;2023-02-03T03:08:12;23.40;;;14.30;;
4434;SDS011;46552;52.150;8.428;2023-02-03T03:10:42;29.00;;;15.37;;
4434;SDS011;46552;52.150;8.428;2023-02-03T03:13:10;32.43;;;14.53;;
4434;SDS011;46552;52.150;8.428;2023-02-03T03:15:41;31.93;;;15.33;;
4434;SDS011;46552;52.150;8.428;2023-02-03T03:18:12;25.90;;;14.33;;
4434;SDS011;46552;52.150;8.428;2023-02-03T03:20:43;29.20;;;15.70;;
4434;SDS011;46552;52.150;8.428;2023-02-03T03:23:14;38.03;;;14.80;;
4434;SDS011;46552;52.150;8.428;2023-02-03T03:25:45;25.90;;;14.83;;
4434;SDS011;46552;52.150;8.428;2023-02-03T03:28:16;24.20;;;13.43;;
4434;SDS011;46552;52.150;8.428;2023-02-03T03:30:50;21.27;;;13.57;;
4434;SDS011;46552;52.150;8.428;2023-02-03T03:33:20;33.50;;;16.30;;
4434;SDS011;46552;52.150;8.428;2023-02-03T03:35:51;27.73;;;15.40;;
4434;SDS011;46552;52.150;8.428;2023-02-03T03:38:23;28.67;;;14.03;;
4434;SDS011;46552;52.150;8.428;2023-02-03T03:40:58;21.30;;;13.20;;
4434;SDS011;46552;52.150;8.428;2023-02-03T03:43:29;30.30;;;14.00;;
4434;SDS011;46552;52.150;8.428;2023-02-03T03:46:00;27.23;;;13.40;;
4434;SDS011;46552;52.150;8.428;2023-02-03T03:48:35;25.57;;;12.53;;
4434;SDS011;46552;52.150;8.428;2023-02-03T03:51:07;25.97;;;13.33;;
4434;SDS011;46552;52.150;8.428;2023-02-03T03:53:36;23.53;;;11.67;;
4434;SDS011;46552;52.150;8.428;2023-02-03T03:56:05;20.10;;;10.77;;
4434;SDS011;46552;52.150;8.428;2023-02-03T03:58:33;24.30;;;12.90;;
4434;SDS011;46552;52.150;8.428;2023-02-03T04:01:04;33.93;;;11.83;;
4434;SDS011;46552;52.150;8.428;2023-02-03T04:03:37;33.43;;;13.50;;
4434;SDS011;46552;52.150;8.428;2023-02-03T04:06:06;25.47;;;12.10;;
4434;SDS011;46552;52.150;8.428;2023-02-03T04:08:34;29.47;;;12.10;;
4434;SDS011;46552;52.150;8.428;2023-02-03T04:11:01;24.77;;;12.43;;
4434;SDS011;46552;52.150;8.428;2023-02-03T04:13:28;18.73;;;10.70;;
4434;SDS011;46552;52.150;8.428;2023-02-03T04:15:55;29.37;;;11.90;;
4434;SDS011;46552;52.150;8.428;2023-02-03T04:18:23;20.43;;;11.27;;
4434;SDS011;46552;52.150;8.428;2023-02-03T04:20:51;19.00;;;9.67;;
4434;SDS011;46552;52.150;8.428;2023-02-03T04:23:18;23.07;;;10.03;;
4434;SDS011;46552;52.150;8.428;2023-02-03T04:25:46;23.67;;;10.33;;
4434;SDS011;46552;52.150;8.428;2023-02-03T04:28:13;30.07;;;11.00;;
4434;SDS011;46552;52.150;8.428;2023-02-03T04:30:41;27.03;;;10.50;;
4434;SDS011;46552;52.150;8.428;2023-02-03T04:33:08;21.80;;;9.63;;
4434;SDS011;46552;52.150;8.428;2023-02-03T04:35:36;19.13;;;9.17;;
4434;SDS011;46552;52.150;8.428;2023-02-03T04:38:06;22.63;;;9.63;;
4434;SDS011;46552;52.150;8.428;2023-02-03T04:40:33;14.97;;;8.53;;
4434;SDS011;46552;52.150;8.428;2023-02-03T04:43:04;20.83;;;9.17;;
4434;SDS011;46552;52.150;8.428;2023-02-03T04:45:33;25.97;;;8.67;;
4434;SDS011;46552;52.150;8.428;2023-02-03T04:48:00;24.10;;;9.83;;
4434;SDS011;46552;52.150;8.428;2023-02-03T04:50:28;22.47;;;8.50;;
4434;SDS011;46552;52.150;8.428;2023-02-03T04:52:56;19.33;;;8.33;;
4434;SDS011;46552;52.150;8.428;2023-02-03T04:55:26;18.60;;;7.80;;
4434;SDS011;46552;52.150;8.428;2023-02-03T04:57:54;18.77;;;8.40;;
4434;SDS011;46552;52.150;8.428;2023-02-03T05:00:21;22.90;;;8.77;;
4434;SDS011;46552;52.150;8.428;2023-02-03T05:02:49;23.03;;;8.80;;
4434;SDS011;46552;52.150;8.428;2023-02-03T05:05:16;17.83;;;7.20;;
4434;SDS011;46552;52.150;8.428;2023-02-03T05:07:43;19.70;;;7.70;;
4434;SDS011;46552;52.150;8.428;2023-02-03T05:10:11;15.20;;;8.37;;
4434;SDS011;46552;52.150;8.428;2023-02-03T05:12:40;19.40;;;7.67;;
4434;SDS011;46552;52.150;8.428;2023-02-03T05:15:08;22.30;;;7.93;;
4434;SDS011;46552;52.150;8.428;2023-02-03T05:17:35;20.60;;;7.23;;
4434;SDS011;46552;52.150;8.428;2023-02-03T05:20:04;18.30;;;7.47;;
4434;SDS011;46552;52.150;8.428;2023-02-03T05:22:33;19.27;;;7.00;;
4434;SDS011;46552;52.150;8.428;2023-02-03T05:25:00;20.87;;;7.13;;
4434;SDS011;46552;52.150;8.428;2023-02-03T05:27:28;15.33;;;8.13;;
4434;SDS011;46552;52.150;8.428;2023-02-03T05:29:58;17.20;;;7.17;;
4434;SDS011;46552;52.150;8.428;2023-02-03T05:32:25;18.43;;;6.90;;
4434;SDS011;46552;52.150;8.428;2023-02-03T05:34:52;21.47;;;7.33;;
4434;SDS011;46552;52.150;8.428;2023-02-03T05:37:19;17.97;;;7.60;;
4434;SDS011;46552;52.150;8.428;2023-02-03T05:39:47;18.60;;;6.00;;
4434;SDS011;46552;52.150;8.428;2023-02-03T05:42:14;17.50;;;7.40;;
4434;SDS011;46552;52.150;8.428;2023-02-03T05:44:41;19.83;;;7.70;;
4434;SDS011;46552;52.150;8.428;2023-02-03T05:47:11;15.93;;;7.40;;
4434;SDS011;46552;52.150;8.428;2023-02-03T05:49:38;19.37;;;6.70;;
4434;SDS011;46552;52.150;8.428;2023-02-03T05:52:05;13.27;;;6.13;;
4434;SDS011;46552;52.150;8.428;2023-02-03T05:54:32;16.73;;;7.30;;
4434;SDS011;46552;52.150;8.428;2023-02-03T05:57:00;15.37;;;8.00;;
4434;SDS011;46552;52.150;8.428;2023-02-03T05:59:27;17.07;;;7.73;;
4434;SDS011;46552;52.150;8.428;2023-02-03T06:01:55;18.80;;;7.43;;
4434;SDS011;46552;52.150;8.428;2023-02-03T06:04:24;14.87;;;7.77;;
4434;SDS011;46552;52.150;8.428;2023-02-03T06:06:52;22.13;;;7.40;;
4434;SDS011;46552;52.150;8.428;2023-02-03T06:09:20;20.40;;;7.80;;
4434;SDS011;46552;52.150;8.428;2023-02-03T06:11:47;21.80;;;8.23;;
4434;SDS011;46552;52.150;8.428;2023-02-03T06:14:14;15.33;;;7.37;;
4434;SDS011;46552;52.150;8.428;2023-02-03T06:16:42;22.53;;;8.53;;
4434;SDS011;46552;52.150;8.428;2023-02-03T06:19:09;14.73;;;7.20;;
4434;SDS011;46552;52.150;8.428;2023-02-03T06:21:38;11.93;;;7.10;;
4434;SDS011;46552;52.150;8.428;2023-02-03T06:24:05;13.90;;;8.03;;
4434;SDS011;46552;52.150;8.428;2023-02-03T06:26:32;24.80;;;7.77;;
4434;SDS011;46552;52.150;8.428;2023-02-03T06:28:59;16.67;;;7.70;;
4434;SDS011;46552;52.150;8.428;2023-02-03T06:31:27;14.20;;;7.67;;
4434;SDS011;46552;52.150;8.428;2023-02-03T06:33:55;17.83;;;6.53;;
4434;SDS011;46552;52.150;8.428;2023-02-03T06:36:23;15.20;;;8.60;;
4434;SDS011;46552;52.150;8.428;2023-02-03T06:38:53;11.97;;;7.50;;
4434;SDS011;46552;52.150;8.428;2023-02-03T06:41:20;20.70;;;7.80;;
4434;SDS011;46552;52.150;8.428;2023-02-03T06:43:51;13.90;;;8.53;;
4434;SDS011;46552;52.150;8.428;2023-02-03T06:46:18;18.70;;;8.87;;
4434;SDS011;46552;52.150;8.428;2023-02-03T06:48:46;14.30;;;8.77;;
4434;SDS011;46552;52.150;8.428;2023-02-03T06:51:13;17.80;;;8.60;;
4434;SDS011;46552;52.150;8.428;2023-02-03T06:53:40;25.27;;;8.27;;
4434;SDS011;46552;52.150;8.428;2023-02-03T06:56:09;16.20;;;8.13;;
4434;SDS011;46552;52.150;8.428;2023-02-03T06:58:36;20.03;;;9.27;;
4434;SDS011;46552;52.150;8.428;2023-02-03T07:01:04;18.53;;;8.97;;
4434;SDS011;46552;52.150;8.428;2023-02-03T07:03:31;20.03;;;8.03;;
4434;SDS011;46552;52.150;8.428;2023-02-03T07:05:58;19.30;;;8.90;;
4434;SDS011;46552;52.150;8.428;2023-02-03T07:08:25;15.93;;;8.20;;
4434;SDS011;46552;52.150;8.428;2023-02-03T07:10:53;25.00;;;8.30;;
4434;SDS011;46552;52.150;8.428;2023-02-03T07:13:22;26.50;;;9.50;;
4434;SDS011;46552;52.150;8.428;2023-02-03T07:15:49;25.03;;;9.57;;
4434;SDS011;46552;52.150;8.428;2023-02-03T07:18:16;12.30;;;8.93;;
4434;SDS011;46552;52.150;8.428;2023-02-03T07:20:48;15.07;;;8.60;;
4434;SDS011;46552;52.150;8.428;2023-02-03T07:23:16;21.23;;;9.70;;
4434;SDS011;46552;52.150;8.428;2023-02-03T07:25:43;17.63;;;8.10;;
4434;SDS011;46552;52.150;8.428;2023-02-03T07:28:11;22.87;;;10.13;;
4434;SDS011;46552;52.150;8.428;2023-02-03T07:30:39;22.83;;;10.30;;
4434;SDS011;46552;52.150;8.428;2023-02-03T07:33:08;15.33;;;10.80;;
4434;SDS011;46552;52.150;8.428;2023-02-03T07:35:35;25.03;;;10.13;;
4434;SDS011;46552;52.150;8.428;2023-02-03T07:38:02;19.60;;;10.40;;
4434;SDS011;46552;52.150;8.428;2023-02-03T07:40:29;22.70;;;10.70;;
4434;SDS011;46552;52.150;8.428;2023-02-03T07:42:57;23.93;;;10.90;;
4434;SDS011;46552;52.150;8.428;2023-02-03T07:45:24;16.33;;;8.87;;
4434;SDS011;46552;52.150;8.428;2023-02-03T07:47:53;22.63;;;12.07;;
4434;SDS011;46552;52.150;8.428;2023-02-03T07:50:21;18.90;;;10.47;;
4434;SDS011;46552;52.150;8.428;2023-02-03T07:52:49;18.27;;;9.90;;
4434;SDS011;46552;52.150;8.428;2023-02-03T07:55:16;21.70;;;10.83;;
4434;SDS011;46552;52.150;8.428;2023-02-03T07:57:44;22.37;;;10.00;;
4434;SDS011;46552;52.150;8.428;2023-02-03T08:00:12;20.47;;;11.10;;
4434;SDS011;46552;52.150;8.428;2023-02-03T08:02:41;23.40;;;9.70;;
4434;SDS011;46552;52.150;8.428;2023-02-03T08:05:10;20.23;;;10.80;;
4434;SDS011;46552;52.150;8.428;2023-02-03T08:07:38;16.53;;;9.10;;
4434;SDS011;46552;52.150;8.428;2023-02-03T08:10:06;14.50;;;8.50;;
4434;SDS011;46552;52.150;8.428;2023-02-03T08:12:34;19.57;;;9.03;;
4434;SDS011;46552;52.150;8.428;2023-02-03T08:15:02;21.63;;;9.67;;
4434;SDS011;46552;52.150;8.428;2023-02-03T08:17:30;14.77;;;8.10;;
4434;SDS011;46552;52.150;8.428;2023-02-03T08:19:58;18.30;;;8.23;;
4434;SDS011;46552;52.150;8.428;2023-02-03T08:22:27;23.63;;;8.07;;
4434;SDS011;46552;52.150;8.428;2023-02-03T08:24:54;16.00;;;8.40;;
4434;SDS011;46552;52.150;8.428;2023-02-03T08:27:22;15.93;;;9.20;;
4434;SDS011;46552;52.150;8.428;2023-02-03T08:29:49;19.83;;;9.10;;
4434;SDS011;46552;52.150;8.428;2023-02-03T08:32:18;21.00;;;9.20;;
4434;SDS011;46552;52.150;8.428;2023-02-03T08:34:46;14.63;;;8.17;;
4434;SDS011;46552;52.150;8.428;2023-02-03T08:37:15;22.83;;;10.23;;
4434;SDS011;46552;52.150;8.428;2023-02-03T08:39:45;22.20;;;9.40;;
4434;SDS011;46552;52.150;8.428;2023-02-03T08:42:13;23.20;;;9.30;;
4434;SDS011;46552;52.150;8.428;2023-02-03T08:44:41;24.23;;;9.30;;
4434;SDS011;46552;52.150;8.428;2023-02-03T08:47:09;16.60;;;9.23;;
4434;SDS011;46552;52.150;8.428;2023-02-03T08:49:36;25.63;;;8.50;;
4434;SDS011;46552;52.150;8.428;2023-02-03T08:52:05;15.93;;;8.20;;
4434;SDS011;46552;52.150;8.428;2023-02-03T08:54:32;23.10;;;9.17;;
4434;SDS011;46552;52.150;8.428;2023-02-03T08:57:02;17.53;;;8.50;;
4434;SDS011;46552;52.150;8.428;2023-02-03T08:59:29;17.57;;;8.83;;
4434;SDS011;46552;52.150;8.428;2023-02-03T09:02:00;20.20;;;10.00;;
4434;SDS011;46552;52.150;8.428;2023-02-03T09:04:27;19.80;;;9.67;;
4434;SDS011;46552;52.150;8.428;2023-02-03T09:06:56;19.17;;;7.90;;
4434;SDS011;46552;52.150;8.428;2023-02-03T09:09:23;15.97;;;7.57;;
4434;SDS011;46552;52.150;8.428;2023-02-03T09:11:52;36.40;;;9.20;;
4434;SDS011;46552;52.150;8.428;2023-02-03T09:14:27;34.27;;;8.40;;
4434;SDS011;46552;52.150;8.428;2023-02-03T09:16:55;23.47;;;8.10;;
4434;SDS011;46552;52.150;8.428;2023-02-03T09:19:23;38.00;;;8.87;;
4434;SDS011;46552;52.150;8.428;2023-02-03T09:21:50;13.33;;;8.10;;
4434;SDS011;46552;52.150;8.428;2023-02-03T09:24:17;21.03;;;8.33;;
4434;SDS011;46552;52.150;8.428;2023-02-03T09:26:45;14.97;;;7.73;;
4434;SDS011;46552;52.150;8.428;2023-02-03T09:29:12;27.97;;;8.20;;
4434;SDS011;46552;52.150;8.428;2023-02-03T09:31:42;21.90;;;8.50;;
4434;SDS011;46552;52.150;8.428;2023-02-03T09:34:10;19.40;;;7.23;;
4434;SDS011;46552;52.150;8.428;2023-02-03T09:36:38;19.40;;;7.30;;
4434;SDS011;46552;52.150;8.428;2023-02-03T09:39:05;28.77;;;8.47;;
4434;SDS011;46552;52.150;8.428;2023-02-03T09:41:41;18.40;;;6.87;;
4434;SDS011;46552;52.150;8.428;2023-02-03T09:44:41;14.60;;;7.07;;
4434;SDS011;46552;52.150;8.428;2023-02-03T09:47:16;27.10;;;6.77;;
4434;SDS011;46552;52.150;8.428;2023-02-03T09:49:47;13.20;;;7.70;;
4434;SDS011;46552;52.150;8.428;2023-02-03T09:52:17;24.03;;;7.20;;
4434;SDS011;46552;52.150;8.428;2023-02-03T09:54:48;14.97;;;6.73;;
4434;SDS011;46552;52.150;8.428;2023-02-03T09:57:23;19.13;;;6.80;;
4434;SDS011;46552;52.150;8.428;2023-02-03T09:59:51;14.80;;;6.80;;
4434;SDS011;46552;52.150;8.428;2023-02-03T10:02:33;16.20;;;6.17;;
4434;SDS011;46552;52.150;8.428;2023-02-03T10:05:11;17.63;;;5.90;;
4434;SDS011;46552;52.150;8.428;2023-02-03T10:07:46;21.10;;;7.40;;
4434;SDS011;46552;52.150;8.428;2023-02-03T10:10:15;22.00;;;6.40;;
4434;SDS011;46552;52.150;8.428;2023-02-03T10:12:46;11.23;;;5.77;;
4434;SDS011;46552;52.150;8.428;2023-02-03T10:15:37;22.07;;;7.27;;
4434;SDS011;46552;52.150;8.428;2023-02-03T10:18:20;12.73;;;6.33;;
4434;SDS011;46552;52.150;8.428;2023-02-03T10:20:50;15.23;;;6.20;;
4434;SDS011;46552;52.150;8.428;2023-02-03T10:23:23;26.80;;;6.40;;
4434;SDS011;46552;52.150;8.428;2023-02-03T10:25:55;16.30;;;5.47;;
4434;SDS011;46552;52.150;8.428;2023-02-03T10:28:28;11.40;;;5.97;;
4434;SDS011;46552;52.150;8.428;2023-02-03T10:30:58;12.13;;;6.27;;
4434;SDS011;46552;52.150;8.428;2023-02-03T10:33:30;14.93;;;5.83;;
4434;SDS011;46552;52.150;8.428;2023-02-03T10:36:00;16.50;;;5.53;;
4434;SDS011;46552;52.150;8.428;2023-02-03T10:38:38;26.07;;;6.33;;
4434;SDS011;46552;52.150;8.428;2023-02-03T10:41:11;22.33;;;6.70;;
4434;SDS011;46552;52.150;8.428;2023-02-03T10:43:40;11.50;;;4.80;;
4434;SDS011;46552;52.150;8.428;2023-02-03T10:46:15;8.67;;;3.70;;
4434;SDS011;46552;52.150;8.428;2023-02-03T10:48:46;11.93;;;4.47;;
4434;SDS011;46552;52.150;8.428;2023-02-03T10:51:17;11.50;;;4.10;;
4434;SDS011;46552;52.150;8.428;2023-02-03T10:53:46;9.70;;;4.73;;
4434;SDS011;46552;52.150;8.428;2023-02-03T10:56:17;18.30;;;4.77;;
4434;SDS011;46552;52.150;8.428;2023-02-03T10:58:46;15.07;;;4.80;;
4434;SDS011;46552;52.150;8.428;2023-02-03T11:01:15;13.00;;;4.60;;
4434;SDS011;46552;52.150;8.428;2023-02-03T11:03:53;9.37;;;3.20;;
4434;SDS011;46552;52.150;8.428;2023-02-03T11:06:23;21.43;;;4.80;;
4434;SDS011;46552;52.150;8.428;2023-02-03T11:08:50;20.87;;;5.10;;
4434;SDS011;46552;52.150;8.428;2023-02-03T11:11:22;26.83;;;5.10;;
4434;SDS011;46552;52.150;8.428;2023-02-03T11:13:54;22.13;;;6.03;;
4434;SDS011;46552;52.150;8.428;2023-02-03T11:16:36;15.70;;;4.90;;
4434;SDS011;46552;52.150;8.428;2023-02-03T11:19:06;22.50;;;5.13;;
4434;SDS011;46552;52.150;8.428;2023-02-03T11:21:40;20.60;;;4.73;;
4434;SDS011;46552;52.150;8.428;2023-02-03T11:24:10;16.57;;;4.73;;
4434;SDS011;46552;52.150;8.428;2023-02-03T11:26:44;15.87;;;6.00;;
4434;SDS011;46552;52.150;8.428;2023-02-03T11:29:15;21.90;;;5.33;;
4434;SDS011;46552;52.150;8.428;2023-02-03T11:31:46;24.50;;;6.37;;
4434;SDS011;46552;52.150;8.428;2023-02-03T11:34:17;18.57;;;5.57;;
4434;SDS011;46552;52.150;8.428;2023-02-03T11:36:48;23.83;;;5.77;;
4434;SDS011;46552;52.150;8.428;2023-02-03T11:39:17;33.93;;;5.60;;
4434;SDS011;46552;52.150;8.428;2023-02-03T11:41:49;19.50;;;4.73;;
4434;SDS011;46552;52.150;8.428;2023-02-03T11:44:17;23.03;;;4.93;;
4434;SDS011;46552;52.150;8.428;2023-02-03T11:46:47;26.17;;;5.53;;
4434;SDS011;46552;52.150;8.428;2023-02-03T11:49:23;25.33;;;5.23;;
4434;SDS011;46552;52.150;8.428;2023-02-03T11:52:13;16.33;;;5.37;;
4434;SDS011;46552;52.150;8.428;2023-02-03T11:54:54;25.37;;;7.27;;
4434;SDS011;46552;52.150;8.428;2023-02-03T11:57:29;19.40;;;4.30;;
4434;SDS011;46552;52.150;8.428;2023-02-03T12:00:11;18.73;;;5.57;;
4434;SDS011;46552;52.150;8.428;2023-02-03T12:06:00;22.43;;;4.97;;
4434;SDS011;46552;52.150;8.428;2023-02-03T12:08:46;19.83;;;4.83;;
4434;SDS011;46552;52.150;8.428;2023-02-03T12:11:26;23.17;;;5.47;;
4434;SDS011;46552;52.150;8.428;2023-02-03T12:14:04;23.10;;;6.17;;
4434;SDS011;46552;52.150;8.428;2023-02-03T12:16:51;24.90;;;6.60;;
4434;SDS011;46552;52.150;8.428;2023-02-03T12:19:51;30.47;;;5.90;;
4434;SDS011;46552;52.150;8.428;2023-02-03T12:22:33;28.53;;;8.50;;
4434;SDS011;46552;52.150;8.428;2023-02-03T12:25:14;26.20;;;5.73;;
4434;SDS011;46552;52.150;8.428;2023-02-03T12:27:52;33.00;;;6.07;;
4434;SDS011;46552;52.150;8.428;2023-02-03T12:30:26;25.50;;;5.93;;
4434;SDS011;46552;52.150;8.428;2023-02-03T12:32:58;21.87;;;6.03;;
4434;SDS011;46552;52.150;8.428;2023-02-03T12:35:33;40.10;;;8.03;;
4434;SDS011;46552;52.150;8.428;2023-02-03T12:38:06;30.67;;;5.17;;
4434;SDS011;46552;52.150;8.428;2023-02-03T12:40:39;22.73;;;4.50;;
4434;SDS011;46552;52.150;8.428;2023-02-03T12:43:18;29.67;;;5.40;;
4434;SDS011;46552;52.150;8.428;2023-02-03T12:45:51;38.37;;;6.20;;
4434;SDS011;46552;52.150;8.428;2023-02-03T12:48:24;35.23;;;7.37;;
4434;SDS011;46552;52.150;8.428;2023-02-03T12:50:58;58.57;;;7.40;;
4434;SDS011;46552;52.150;8.428;2023-02-03T12:53:30;29.20;;;5.70;;
4434;SDS011;46552;52.150;8.428;2023-02-03T12:56:02;28.40;;;5.13;;
4434;SDS011;46552;52.150;8.428;2023-02-03T12:58:35;30.17;;;5.50;;
4434;SDS011;46552;52.150;8.428;2023-02-03T13:01:08;37.03;;;8.13;;
4434;SDS011;46552;52.150;8.428;2023-02-03T13:03:44;38.37;;;7.07;;
4434;SDS011;46552;52.150;8.428;2023-02-03T13:06:16;27.63;;;6.60;;
4434;SDS011;46552;52.150;8.428;2023-02-03T13:08:53;31.77;;;6.17;;
4434;SDS011;46552;52.150;8.428;2023-02-03T13:11:27;31.73;;;5.70;;
4434;SDS011;46552;52.150;8.428;2023-02-03T13:14:00;36.60;;;5.47;;
4434;SDS011;46552;52.150;8.428;2023-02-03T13:16:37;39.03;;;7.03;;
4434;SDS011;46552;52.150;8.428;2023-02-03T13:19:10;17.27;;;4.80;;
4434;SDS011;46552;52.150;8.428;2023-02-03T13:21:46;47.67;;;7.23;;
4434;SDS011;46552;52.150;8.428;2023-02-03T13:24:15;23.10;;;6.03;;
4434;SDS011;46552;52.150;8.428;2023-02-03T13:26:52;39.40;;;6.40;;
4434;SDS011;46552;52.150;8.428;2023-02-03T13:32:30;29.83;;;6.10;;
4434;SDS011;46552;52.150;8.428;2023-02-03T13:35:22;28.70;;;6.20;;
4434;SDS011;46552;52.150;8.428;2023-02-03T13:38:07;33.90;;;6.87;;
4434;SDS011;46552;52.150;8.428;2023-02-03T13:40:49;31.30;;;5.83;;
4434;SDS011;46552;52.150;8.428;2023-02-03T13:43:26;34.73;;;7.60;;
4434;SDS011;46552;52.150;8.428;2023-02-03T13:45:56;25.13;;;6.13;;
4434;SDS011;46552;52.150;8.428;2023-02-03T13:48:24;35.37;;;5.53;;
4434;SDS011;46552;52.150;8.428;2023-02-03T13:51:01;31.80;;;7.00;;
4434;SDS011;46552;52.150;8.428;2023-02-03T13:53:32;30.60;;;6.57;;
4434;SDS011;46552;52.150;8.428;2023-02-03T13:56:18;21.37;;;6.13;;
4434;SDS011;46552;52.150;8.428;2023-02-03T14:01:32;26.73;;;4.50;;
4434;SDS011;46552;52.150;8.428;2023-02-03T14:04:02;22.97;;;4.87;;
4434;SDS011;46552;52.150;8.428;2023-02-03T14:09:21;40.50;;;5.83;;
4434;SDS011;46552;52.150;8.428;2023-02-03T14:14:57;24.43;;;4.97;;
4434;SDS011;46552;52.150;8.428;2023-02-03T14:20:42;19.53;;;5.13;;
4434;SDS011;46552;52.150;8.428;2023-02-03T14:23:19;23.20;;;5.80;;
4434;SDS011;46552;52.150;8.428;2023-02-03T14:25:53;32.27;;;6.20;;
4434;SDS011;46552;52.150;8.428;2023-02-03T14:28:27;39.70;;;6.00;;
4434;SDS011;46552;52.150;8.428;2023-02-03T14:31:06;18.90;;;5.53;;
4434;SDS011;46552;52.150;8.428;2023-02-03T14:33:51;30.57;;;5.40;;
4434;SDS011;46552;52.150;8.428;2023-02-03T14:36:28;44.50;;;6.43;;
4434;SDS011;46552;52.150;8.428;2023-02-03T14:39:35;27.80;;;7.53;;
4434;SDS011;46552;52.150;8.428;2023-02-03T14:42:21;19.43;;;4.93;;
4434;SDS011;46552;52.150;8.428;2023-02-03T14:45:12;37.00;;;5.80;;
4434;SDS011;46552;52.150;8.428;2023-02-03T14:47:54;26.63;;;5.40;;
4434;SDS011;46552;52.150;8.428;2023-02-03T14:50:33;25.97;;;5.70;;
4434;SDS011;46552;52.150;8.428;2023-02-03T14:53:17;42.53;;;5.53;;
4434;SDS011;46552;52.150;8.428;2023-02-03T14:55:56;34.13;;;6.53;;
4434;SDS011;46552;52.150;8.428;2023-02-03T14:58:40;29.87;;;5.50;;
4434;SDS011;46552;52.150;8.428;2023-02-03T15:01:23;37.07;;;6.43;;
4434;SDS011;46552;52.150;8.428;2023-02-03T15:06:50;29.70;;;5.10;;
4434;SDS011;46552;52.150;8.428;2023-02-03T15:09:25;28.80;;;5.17;;
4434;SDS011;46552;52.150;8.428;2023-02-03T15:11:55;43.37;;;5.50;;
4434;SDS011;46552;52.150;8.428;2023-02-03T15:14:23;17.80;;;4.23;;
4434;SDS011;46552;52.150;8.428;2023-02-03T15:16:56;30.07;;;4.73;;
4434;SDS011;46552;52.150;8.428;2023-02-03T15:19:25;22.63;;;4.03;;
4434;SDS011;46552;52.150;8.428;2023-02-03T15:21:54;27.27;;;5.23;;
4434;SDS011;46552;52.150;8.428;2023-02-03T15:24:22;25.80;;;4.57;;
4434;SDS011;46552;52.150;8.428;2023-02-03T15:26:50;31.10;;;5.07;;
4434;SDS011;46552;52.150;8.428;2023-02-03T15:29:23;23.03;;;5.03;;
4434;SDS011;46552;52.150;8.428;2023-02-03T15:31:57;22.40;;;6.33;;
4434;SDS011;46552;52.150;8.428;2023-02-03T15:34:31;17.70;;;4.67;;